Campbell AAF (Fort Campbell) Air Field
KHOP : rendu visible

Aérodrome :











RETROUVEZ-NOUS SUR...

 
LOGIN :

S'inscrire | Disclaimer

   EN    FR    IT 

 









Légende :    VFR   VFR Marginal   IFR   IFR Intensif   IFR Très Intensif
Visi : 
Plafond : 
>= 8 km
>= 3000ft
5 à 8 km
1000 à 3000 ft
1500m à 5 km
500 à 1000 ft
800 à 1500m
200 à 500 ft
< 800m
< 200 ft
Symboles :   Orages  Brouillard  Fortes neiges  Fortes précipitations  Vent > 20 kt






- Altitude de l'aérodrome : 573 ft


KHOP - Campbell AAF (Fort Campbell) Air Field

DERNIER METAR :
  • 191456Z AUTO 19006KT 10SM BKN065 09/06 A2980 RMK AO2 SLP095 T00910060 50008

METARs EXPIRÉS :
  • 191356Z AUTO 18005KT 10SM OVC060 07/06 A2980 RMK AO2 SLP095 T00710064

TAF TAF KHOP
Valide du 19 à 08h jusqu'au 20 à 14h UTC


190800Z 1908/2014 17006KT 9000 -RA SCT010 OVC025 620608 QNH2978INS
BECMG 1910/1911 19006KT 9999 NSW SCT015 OVC030 QNH2978INS
BECMG 1915/1916 27012G18KT 9999 BKN020 OVC030 QNH2981INS
BECMG 1922/1923 30006KT 9999 SCT020 QNH2994INS TX15/1921Z TN03/1911Z



MET'MAP, la Météo Aéronautique d'un coup d'oeil ! - Copyright ORBIFLY Décembre 2007 - Disclaimer

ORBIFLY MET'MAP TEAM :

Programmation & Développement : Alexandra Zaïnal
Conception & Développement : Baudouin d'Aumeries
Co-Programmation & Développement : Marc-Olivier Méhu
Soutien technique & logistique : Manuel Goepfert

Contact : metmap@orbifly.com




SOURCES & CREDITS :

   NOAA       Earth
Advisory